Time;durP1;ratioP1;P1;durP2;ratioP2;P2;SDS_P1;SDS_P2;PMS_P1;PMS_P2;Temp;Humidity;BMP_temperature;BMP_pressure;BME280_temperature;BME280_humidity;BME280_pressure;Samples;Min_cycle;Max_cycle;Signal;HPM_P1;HPM_P2
2022/09/27 00:00:17;;;;;;;;;;;11.20;99.90;;;;;;5094878;28;19920;-81
2022/09/27 00:02:43;;;;;;;;;;;11.20;99.90;;;;;;5077453;28;20017;-83
2022/09/27 00:05:09;;;;;;;;;;;11.20;99.90;;;;;;5076952;28;20373;-82
2022/09/27 00:07:34;;;;;;;;;;;11.20;99.90;;;;;;5077608;28;19920;-82
2022/09/27 00:10:00;;;;;;;;;;;11.20;99.90;;;;;;5077505;28;20308;-82
2022/09/27 00:12:25;;;;;;;;;;;11.20;99.90;;;;;;5077279;28;19943;-82
2022/09/27 00:14:51;;;;;;;;;;;11.20;99.90;;;;;;5094589;28;19924;-82
2022/09/27 00:17:16;;;;;;;;;;;11.20;99.90;;;;;;5094389;28;19963;-82
2022/09/27 00:19:42;;;;;;;;;;;11.20;99.90;;;;;;5061450;28;19970;-83
2022/09/27 00:22:08;;;;;;;;;;;11.30;99.90;;;;;;5061211;28;19920;-83
2022/09/27 00:24:33;;;;;;;;;;;11.30;99.90;;;;;;5077553;28;19924;-85
2022/09/27 00:26:59;;;;;;;;;;;11.30;99.90;;;;;;5075113;28;19958;-82
2022/09/27 00:29:24;;;;;;;;;;;11.30;99.90;;;;;;5061399;28;19946;-82
2022/09/27 00:31:50;;;;;;;;;;;11.30;99.90;;;;;;5095051;28;19967;-82
2022/09/27 00:34:20;;;;;;;;;;;11.30;99.90;;;;;;5060859;28;20277;-82
2022/09/27 00:36:46;;;;;;;;;;;11.20;99.90;;;;;;5094297;28;19924;-83
2022/09/27 00:39:12;;;;;;;;;;;11.20;99.90;;;;;;5077851;28;19920;-83
2022/09/27 00:41:37;;;;;;;;;;;11.20;99.90;;;;;;5077388;28;19920;-84
2022/09/27 00:44:04;;;;;;;;;;;11.20;99.90;;;;;;5056215;28;20017;-82
2022/09/27 00:46:34;;;;;;;;;;;11.20;99.90;;;;;;5059018;28;19920;-82
2022/09/27 00:49:16;;;;;;;;;;;11.20;99.90;;;;;;5074267;28;20361;-82
2022/09/27 00:51:43;;;;;;;;;;;11.20;99.90;;;;;;5056910;28;20009;-83
2022/09/27 00:54:10;;;;;;;;;;;11.30;99.90;;;;;;5090319;28;20285;-81
2022/09/27 00:56:36;;;;;;;;;;;11.30;99.90;;;;;;5086103;28;20381;-85
2022/09/27 00:59:05;;;;;;;;;;;11.20;99.90;;;;;;5062875;28;19932;-83
2022/09/27 01:01:31;;;;;;;;;;;11.10;99.90;;;;;;5077304;28;20014;-80
2022/09/27 01:04:00;;;;;;;;;;;11.10;99.90;;;;;;5077237;28;19960;-79
2022/09/27 01:06:26;;;;;;;;;;;11.00;99.90;;;;;;5063778;28;19920;-79
2022/09/27 01:08:51;;;;;;;;;;;11.10;99.90;;;;;;5079312;28;19974;-80
2022/09/27 01:11:39;;;;;;;;;;;11.10;99.90;;;;;;5093979;28;19920;-81
2022/09/27 01:14:14;;;;;;;;;;;11.00;99.90;;;;;;5090592;28;19919;-79
2022/09/27 01:17:06;;;;;;;;;;;11.00;99.90;;;;;;5067806;28;19921;-80
2022/09/27 01:19:35;;;;;;;;;;;11.00;99.90;;;;;;5055770;28;19943;-80
2022/09/27 01:22:10;;;;;;;;;;;11.00;99.90;;;;;;5056918;28;20007;-81
2022/09/27 01:24:44;;;;;;;;;;;11.00;99.90;;;;;;5076949;28;19920;-79
2022/09/27 01:27:29;;;;;;;;;;;11.00;99.90;;;;;;5084588;28;19987;-80
2022/09/27 01:30:13;;;;;;;;;;;11.00;99.90;;;;;;5073425;28;19920;-80
2022/09/27 01:32:54;;;;;;;;;;;11.00;99.90;;;;;;5073831;28;20372;-83
2022/09/27 01:35:23;;;;;;;;;;;11.10;99.90;;;;;;5073126;28;19921;-81
2022/09/27 01:38:08;;;;;;;;;;;11.00;99.90;;;;;;5082340;28;19924;-81
2022/09/27 01:40:36;;;;;;;;;;;10.90;99.90;;;;;;5064477;28;19924;-84
2022/09/27 01:43:06;;;;;;;;;;;10.70;99.90;;;;;;5072615;28;19925;-83
2022/09/27 01:45:36;;;;;;;;;;;10.70;99.90;;;;;;5075568;28;19927;-81
2022/09/27 01:48:03;;;;;;;;;;;10.60;99.90;;;;;;5090600;28;20373;-80
2022/09/27 01:50:50;;;;;;;;;;;10.50;99.90;;;;;;5081192;28;19924;-81
2022/09/27 01:53:31;;;;;;;;;;;10.40;99.90;;;;;;5073336;28;20387;-84
2022/09/27 01:56:00;;;;;;;;;;;10.30;99.90;;;;;;5086829;28;20251;-83
2022/09/27 01:58:28;;;;;;;;;;;10.20;99.90;;;;;;5063226;28;19920;-85
2022/09/27 02:00:54;;;;;;;;;;;10.10;99.90;;;;;;5115942;27;20050;-84
2022/09/27 02:03:24;;;;;;;;;;;9.90;99.90;;;;;;5055241;28;19920;-85
2022/09/27 02:05:56;;;;;;;;;;;9.90;99.90;;;;;;5073863;28;19920;-83
2022/09/27 02:08:25;;;;;;;;;;;9.90;99.90;;;;;;5127343;27;19974;-82
2022/09/27 02:10:53;;;;;;;;;;;10.00;99.90;;;;;;5092370;28;19967;-83
2022/09/27 02:13:38;;;;;;;;;;;10.00;99.90;;;;;;5073172;28;19943;-81
2022/09/27 02:16:20;;;;;;;;;;;10.00;99.90;;;;;;5088258;28;19927;-80
2022/09/27 02:18:45;;;;;;;;;;;10.00;99.90;;;;;;5092655;28;19920;-81
2022/09/27 02:21:13;;;;;;;;;;;10.10;99.90;;;;;;5126860;27;19926;-80
2022/09/27 02:23:54;;;;;;;;;;;10.00;99.90;;;;;;5109470;28;19923;-81
2022/09/27 02:26:26;;;;;;;;;;;10.10;99.90;;;;;;5091251;28;19920;-86
2022/09/27 02:29:07;;;;;;;;;;;10.20;99.90;;;;;;5092215;28;19920;-82
2022/09/27 02:31:32;;;;;;;;;;;10.20;99.90;;;;;;5073857;28;19920;-83
2022/09/27 02:34:01;;;;;;;;;;;10.20;99.90;;;;;;5075704;28;19928;-85
2022/09/27 02:36:27;;;;;;;;;;;10.10;99.90;;;;;;5067663;28;19920;-82
2022/09/27 02:38:53;;;;;;;;;;;10.00;99.90;;;;;;5088699;28;19924;-79
2022/09/27 02:41:19;;;;;;;;;;;9.90;99.90;;;;;;5075718;28;19943;-78
2022/09/27 02:43:47;;;;;;;;;;;9.90;99.90;;;;;;5092611;28;19920;-80
2022/09/27 02:46:25;;;;;;;;;;;9.80;99.90;;;;;;5077585;28;20013;-83
2022/09/27 02:49:09;;;;;;;;;;;9.80;99.90;;;;;;5123479;28;20357;-83
2022/09/27 02:51:49;;;;;;;;;;;9.80;99.90;;;;;;5092293;28;19927;-83
2022/09/27 02:54:14;;;;;;;;;;;9.80;99.90;;;;;;5091868;28;19943;-84
2022/09/27 02:56:58;;;;;;;;;;;9.80;99.90;;;;;;5092275;28;20345;-81
2022/09/27 02:59:32;;;;;;;;;;;9.90;99.90;;;;;;5092526;28;20011;-83
2022/09/27 03:02:07;;;;;;;;;;;9.90;99.90;;;;;;5126325;28;19985;-84
2022/09/27 03:04:39;;;;;;;;;;;9.90;99.90;;;;;;5075264;28;20277;-80
2022/09/27 03:07:05;;;;;;;;;;;9.90;99.90;;;;;;5091670;28;19974;-81
2022/09/27 03:10:00;;;;;;;;;;;9.90;99.90;;;;;;5108733;28;19974;-81
2022/09/27 03:12:26;;;;;;;;;;;9.80;99.90;;;;;;5075061;28;19920;-79
2022/09/27 03:14:58;;;;;;;;;;;9.70;99.90;;;;;;5078001;28;19920;-79
2022/09/27 03:17:24;;;;;;;;;;;9.70;99.90;;;;;;5096289;28;19920;-81
2022/09/27 03:19:50;;;;;;;;;;;9.70;99.90;;;;;;5060690;28;19920;-79
2022/09/27 03:22:15;;;;;;;;;;;9.70;99.90;;;;;;5096258;28;20269;-80
2022/09/27 03:24:41;;;;;;;;;;;9.80;99.90;;;;;;5096050;28;20372;-79
2022/09/27 03:27:07;;;;;;;;;;;9.80;99.90;;;;;;5078867;28;19955;-80
2022/09/27 03:29:32;;;;;;;;;;;9.90;99.90;;;;;;5077581;28;19931;-80
2022/09/27 03:31:58;;;;;;;;;;;10.00;99.90;;;;;;5078496;28;19926;-82
2022/09/27 03:34:24;;;;;;;;;;;10.00;99.90;;;;;;5094707;28;19920;-80
2022/09/27 03:36:49;;;;;;;;;;;9.90;99.90;;;;;;5095616;28;19981;-79
2022/09/27 03:39:15;;;;;;;;;;;9.80;99.90;;;;;;5095649;28;19951;-81
2022/09/27 03:41:40;;;;;;;;;;;9.80;99.90;;;;;;5061952;28;19979;-79
2022/09/27 03:44:06;;;;;;;;;;;9.80;99.90;;;;;;5094699;28;19956;-82
2022/09/27 03:46:32;;;;;;;;;;;9.80;99.90;;;;;;5078524;28;19920;-79
2022/09/27 03:48:57;;;;;;;;;;;9.80;99.90;;;;;;5062049;28;19920;-79
2022/09/27 03:51:23;;;;;;;;;;;9.70;99.90;;;;;;5078473;28;19924;-79
2022/09/27 03:53:48;;;;;;;;;;;9.70;99.90;;;;;;5078453;28;19920;-79
2022/09/27 03:56:14;;;;;;;;;;;9.70;99.90;;;;;;5076475;28;19920;-79
2022/09/27 03:58:39;;;;;;;;;;;9.80;99.90;;;;;;5060029;28;20002;-79
2022/09/27 04:01:05;;;;;;;;;;;9.80;99.90;;;;;;5061654;28;19945;-78
2022/09/27 04:03:30;;;;;;;;;;;9.80;99.90;;;;;;5078233;28;19920;-80
2022/09/27 04:05:56;;;;;;;;;;;9.80;99.90;;;;;;5068851;28;19974;-80
2022/09/27 04:08:22;;;;;;;;;;;9.90;99.90;;;;;;5077583;28;20727;-81
2022/09/27 04:10:48;;;;;;;;;;;9.90;99.90;;;;;;5061339;28;19920;-79
2022/09/27 04:13:13;;;;;;;;;;;10.00;99.90;;;;;;5077990;28;19920;-78
2022/09/27 04:15:39;;;;;;;;;;;10.00;99.90;;;;;;5075206;28;19920;-79
2022/09/27 04:18:05;;;;;;;;;;;10.10;99.90;;;;;;5076606;28;20014;-80
2022/09/27 04:20:30;;;;;;;;;;;10.10;99.90;;;;;;5077858;28;19924;-79
2022/09/27 04:22:56;;;;;;;;;;;10.20;99.90;;;;;;5077971;28;19920;-79
2022/09/27 04:25:21;;;;;;;;;;;10.20;99.90;;;;;;5076608;28;19920;-80
2022/09/27 04:27:47;;;;;;;;;;;10.20;99.90;;;;;;5082897;28;19927;-82
2022/09/27 04:30:14;;;;;;;;;;;10.20;99.90;;;;;;5077583;28;19923;-79
2022/09/27 04:32:40;;;;;;;;;;;10.20;99.90;;;;;;5094207;28;20404;-79
2022/09/27 04:37:50;;;;;;;;;;;10.30;99.90;;;;;;5081320;28;19974;-79
2022/09/27 04:40:16;;;;;;;;;;;10.30;99.90;;;;;;5093437;28;19963;-79
2022/09/27 04:42:41;;;;;;;;;;;10.30;99.90;;;;;;5094382;28;19969;-80
2022/09/27 04:45:07;;;;;;;;;;;10.30;99.90;;;;;;5060867;28;19920;-83
2022/09/27 04:47:33;;;;;;;;;;;10.30;99.90;;;;;;5076839;28;20361;-81
2022/09/27 04:49:58;;;;;;;;;;;10.40;99.90;;;;;;5093763;28;19932;-80
2022/09/27 04:52:24;;;;;;;;;;;10.10;99.90;;;;;;5076792;28;19945;-80
2022/09/27 04:54:50;;;;;;;;;;;9.90;99.90;;;;;;5093832;28;20002;-78
2022/09/27 04:57:16;;;;;;;;;;;9.90;99.90;;;;;;5094096;28;19920;-78
2022/09/27 04:59:42;;;;;;;;;;;9.80;99.90;;;;;;5093475;28;19985;-78
2022/09/27 05:02:07;;;;;;;;;;;9.80;99.90;;;;;;5128079;27;19920;-78
2022/09/27 05:04:33;;;;;;;;;;;9.80;99.90;;;;;;5076760;28;19946;-78
2022/09/27 05:06:59;;;;;;;;;;;9.80;99.90;;;;;;5076666;28;19943;-79
2022/09/27 05:09:24;;;;;;;;;;;9.80;99.90;;;;;;5065943;28;19932;-77
2022/09/27 05:11:50;;;;;;;;;;;9.80;99.90;;;;;;5093612;28;20014;-77
2022/09/27 05:14:15;;;;;;;;;;;9.90;99.90;;;;;;5076284;28;19935;-78
2022/09/27 05:16:41;;;;;;;;;;;10.00;99.90;;;;;;5093814;28;19920;-80
2022/09/27 05:19:06;;;;;;;;;;;10.00;99.90;;;;;;5092414;28;19920;-78
2022/09/27 05:21:32;;;;;;;;;;;10.00;99.90;;;;;;5076262;28;19924;-78
2022/09/27 05:23:58;;;;;;;;;;;10.10;99.90;;;;;;5075942;28;20003;-78
2022/09/27 05:26:24;;;;;;;;;;;10.10;99.90;;;;;;5076031;28;19966;-79
2022/09/27 05:28:49;;;;;;;;;;;10.00;99.90;;;;;;5075852;28;19920;-80
2022/09/27 05:31:15;;;;;;;;;;;10.00;99.90;;;;;;5075867;28;19920;-79
2022/09/27 05:33:40;;;;;;;;;;;10.00;99.90;;;;;;5093100;28;19927;-79
2022/09/27 05:36:07;;;;;;;;;;;10.00;99.90;;;;;;5076432;28;19943;-78
2022/09/27 05:38:34;;;;;;;;;;;10.00;99.90;;;;;;5092087;28;20353;-79
2022/09/27 05:40:59;;;;;;;;;;;10.00;99.90;;;;;;5076177;28;19921;-78
2022/09/27 05:43:27;;;;;;;;;;;10.00;99.90;;;;;;5075876;28;20018;-77
2022/09/27 05:45:52;;;;;;;;;;;10.00;99.90;;;;;;5092946;28;19932;-81
2022/09/27 05:48:18;;;;;;;;;;;10.00;99.90;;;;;;5092901;28;20273;-80
2022/09/27 05:50:44;;;;;;;;;;;10.00;99.90;;;;;;5083485;28;20019;-79
2022/09/27 05:53:10;;;;;;;;;;;9.90;99.90;;;;;;5039954;28;20345;-77
2022/09/27 05:55:35;;;;;;;;;;;9.90;99.90;;;;;;5055784;28;20002;-79
2022/09/27 05:58:05;;;;;;;;;;;9.90;99.90;;;;;;5089798;28;19999;-80
2022/09/27 06:00:31;;;;;;;;;;;10.00;99.90;;;;;;5074327;28;19920;-80
2022/09/27 06:02:58;;;;;;;;;;;10.00;99.90;;;;;;5083008;28;20062;-80
2022/09/27 06:05:24;;;;;;;;;;;9.90;99.90;;;;;;5074411;28;19924;-79
2022/09/27 06:07:50;;;;;;;;;;;9.90;99.90;;;;;;5092141;28;19920;-83
2022/09/27 06:10:16;;;;;;;;;;;9.90;99.90;;;;;;5124447;27;19927;-80
2022/09/27 06:12:42;;;;;;;;;;;9.90;99.90;;;;;;5126536;27;19920;-79
2022/09/27 06:15:07;;;;;;;;;;;9.90;99.90;;;;;;5075436;28;19926;-77
2022/09/27 06:17:33;;;;;;;;;;;9.80;99.90;;;;;;5118556;27;19924;-78
2022/09/27 06:20:00;;;;;;;;;;;9.80;99.90;;;;;;5041040;28;19927;-78
2022/09/27 06:22:25;;;;;;;;;;;9.90;99.90;;;;;;5059299;28;19934;-77
2022/09/27 06:24:51;;;;;;;;;;;9.90;99.90;;;;;;5062163;28;20003;-79
2022/09/27 06:27:17;;;;;;;;;;;10.00;99.90;;;;;;5090546;28;19928;-78
2022/09/27 06:29:43;;;;;;;;;;;10.00;99.90;;;;;;5106706;28;19931;-77
2022/09/27 06:32:09;;;;;;;;;;;10.00;99.90;;;;;;5092611;28;20266;-78
2022/09/27 06:34:35;;;;;;;;;;;10.00;99.90;;;;;;5091594;28;20369;-78
2022/09/27 06:37:01;;;;;;;;;;;10.00;99.90;;;;;;5092494;28;19969;-76
2022/09/27 06:39:27;;;;;;;;;;;10.10;99.90;;;;;;5075487;28;20024;-76
2022/09/27 06:41:56;;;;;;;;;;;10.10;99.90;;;;;;5059064;28;19931;-77
2022/09/27 06:44:23;;;;;;;;;;;10.10;99.90;;;;;;5092499;28;20018;-75
2022/09/27 06:46:52;;;;;;;;;;;10.10;99.90;;;;;;5074993;28;19920;-76
2022/09/27 06:49:21;;;;;;;;;;;10.10;99.90;;;;;;5075080;28;19946;-77
2022/09/27 06:51:47;;;;;;;;;;;10.10;99.90;;;;;;5075394;28;19989;-76
2022/09/27 06:54:13;;;;;;;;;;;10.10;99.90;;;;;;5092564;28;20284;-76
2022/09/27 06:56:38;;;;;;;;;;;10.10;99.90;;;;;;5075133;28;19924;-76
2022/09/27 07:01:51;;;;;;;;;;;10.20;99.90;;;;;;5091664;28;20418;-78
2022/09/27 07:04:17;;;;;;;;;;;10.30;99.90;;;;;;5075826;28;19920;-79
2022/09/27 07:06:43;;;;;;;;;;;10.30;99.90;;;;;;5074899;28;19924;-85
2022/09/27 07:09:09;;;;;;;;;;;10.40;99.90;;;;;;5058350;28;20355;-80
2022/09/27 07:11:37;;;;;;;;;;;10.40;99.90;;;;;;5057201;28;19939;-79
2022/09/27 07:14:03;;;;;;;;;;;10.40;99.90;;;;;;5065834;28;19931;-78
2022/09/27 07:16:30;;;;;;;;;;;10.50;99.90;;;;;;5074243;28;19920;-78
2022/09/27 07:18:56;;;;;;;;;;;10.60;99.90;;;;;;5091877;28;19920;-77
2022/09/27 07:21:22;;;;;;;;;;;10.60;99.90;;;;;;5091648;28;20018;-78
2022/09/27 07:23:48;;;;;;;;;;;10.70;99.90;;;;;;5063702;28;20274;-79
2022/09/27 07:26:14;;;;;;;;;;;10.80;99.90;;;;;;5091927;28;19920;-78
2022/09/27 07:28:40;;;;;;;;;;;10.80;99.90;;;;;;5075015;28;19927;-78
2022/09/27 07:31:06;;;;;;;;;;;10.90;99.90;;;;;;5075579;28;20354;-78
2022/09/27 07:33:32;;;;;;;;;;;10.90;99.90;;;;;;5072674;28;20362;-77
2022/09/27 07:35:57;;;;;;;;;;;10.90;99.90;;;;;;5091876;28;19975;-77
2022/09/27 07:38:23;;;;;;;;;;;10.90;99.90;;;;;;5058343;28;19967;-78
2022/09/27 07:40:48;;;;;;;;;;;10.90;99.90;;;;;;5091301;28;20372;-82
2022/09/27 07:43:14;;;;;;;;;;;10.90;99.90;;;;;;5074339;28;19920;-79
2022/09/27 07:45:40;;;;;;;;;;;11.00;99.90;;;;;;5067760;28;19920;-78
2022/09/27 07:48:06;;;;;;;;;;;11.10;99.90;;;;;;5041898;28;20002;-79
2022/09/27 07:50:32;;;;;;;;;;;11.20;99.90;;;;;;5091399;28;19924;-80
2022/09/27 07:52:58;;;;;;;;;;;11.30;99.90;;;;;;5086532;28;19920;-79
2022/09/27 07:55:23;;;;;;;;;;;11.40;99.90;;;;;;5066528;28;19927;-80
2022/09/27 07:57:49;;;;;;;;;;;11.40;99.90;;;;;;5086464;28;19920;-78
2022/09/27 08:00:17;;;;;;;;;;;11.50;99.90;;;;;;5074182;28;20265;-80
2022/09/27 08:02:42;;;;;;;;;;;11.50;99.90;;;;;;5118362;27;19960;-83
2022/09/27 08:05:08;;;;;;;;;;;11.60;99.90;;;;;;5091920;28;19951;-82
2022/09/27 08:07:34;;;;;;;;;;;11.70;99.90;;;;;;5077277;28;19920;-78
2022/09/27 08:10:00;;;;;;;;;;;11.70;99.90;;;;;;5112011;28;19943;-79
2022/09/27 08:12:25;;;;;;;;;;;11.70;99.90;;;;;;5107613;28;19920;-77
2022/09/27 08:14:51;;;;;;;;;;;11.80;99.90;;;;;;5057984;28;19999;-79
2022/09/27 08:17:18;;;;;;;;;;;11.70;99.90;;;;;;5109082;28;19920;-85
2022/09/27 08:19:44;;;;;;;;;;;11.60;99.90;;;;;;5074795;28;20011;-87
2022/09/27 08:22:12;;;;;;;;;;;11.50;99.90;;;;;;5051678;28;20025;-88
2022/09/27 08:24:38;;;;;;;;;;;11.40;99.90;;;;;;5072242;28;19931;-83
2022/09/27 08:27:06;;;;;;;;;;;11.20;99.90;;;;;;5075476;28;19927;-81
2022/09/27 08:29:32;;;;;;;;;;;11.10;99.90;;;;;;5074280;28;19927;-80
2022/09/27 08:31:58;;;;;;;;;;;11.10;99.90;;;;;;5125603;27;19920;-81
2022/09/27 08:34:24;;;;;;;;;;;11.00;99.90;;;;;;5094386;28;20406;-85
2022/09/27 08:36:49;;;;;;;;;;;10.90;99.90;;;;;;5077437;28;19927;-85
2022/09/27 08:39:15;;;;;;;;;;;10.90;99.90;;;;;;5077404;28;19920;-83
2022/09/27 08:41:48;;;;;;;;;;;10.60;99.90;;;;;;5086060;28;20000;-86
2022/09/27 08:44:26;;;;;;;;;;;10.50;99.90;;;;;;5074533;28;20014;-85
2022/09/27 08:47:00;;;;;;;;;;;10.40;99.90;;;;;;5056811;28;20376;-84
2022/09/27 08:49:30;;;;;;;;;;;10.50;99.90;;;;;;5074041;28;19966;-83
2022/09/27 08:51:57;;;;;;;;;;;10.50;99.90;;;;;;5107622;28;19927;-82
2022/09/27 08:54:25;;;;;;;;;;;10.50;99.90;;;;;;5126032;27;19920;-80
2022/09/27 08:56:52;;;;;;;;;;;10.70;99.90;;;;;;5081883;28;19921;-81
2022/09/27 08:59:20;;;;;;;;;;;10.80;99.90;;;;;;5074215;28;19994;-82
2022/09/27 09:01:47;;;;;;;;;;;10.90;99.90;;;;;;5057110;28;20023;-82
2022/09/27 09:04:14;;;;;;;;;;;11.00;99.90;;;;;;5073805;28;19921;-81
2022/09/27 09:06:44;;;;;;;;;;;11.00;99.90;;;;;;5064790;28;19920;-83
2022/09/27 09:09:29;;;;;;;;;;;11.10;99.90;;;;;;5057234;28;19921;-87
2022/09/27 09:12:45;;;;;;;;;;;11.20;99.90;;;;;;5056317;28;19925;-81
2022/09/27 09:15:04;;;;;;;;;;;11.20;99.90;;;;;;5106560;28;19927;-79
2022/09/27 09:17:32;;;;;;;;;;;11.00;99.90;;;;;;5074376;28;19925;-79
2022/09/27 09:20:21;;;;;;;;;;;10.90;99.90;;;;;;5073406;28;19927;-81
2022/09/27 09:22:47;;;;;;;;;;;10.90;99.90;;;;;;5072926;28;20334;-82
2022/09/27 09:25:14;;;;;;;;;;;11.00;99.90;;;;;;5073271;28;19940;-81
2022/09/27 09:27:48;;;;;;;;;;;11.10;99.90;;;;;;5074557;28;19924;-83
2022/09/27 09:30:24;;;;;;;;;;;11.20;99.90;;;;;;5076952;28;20073;-80
2022/09/27 09:33:10;;;;;;;;;;;11.20;99.90;;;;;;5093531;28;19942;-83
2022/09/27 09:36:02;;;;;;;;;;;11.30;99.90;;;;;;5093085;28;19927;-79
2022/09/27 09:38:33;;;;;;;;;;;11.30;99.90;;;;;;5049656;28;20274;-83
2022/09/27 09:41:05;;;;;;;;;;;11.30;99.90;;;;;;5062541;28;19920;-83
2022/09/27 09:43:33;;;;;;;;;;;11.20;99.90;;;;;;5093234;28;19920;-80
2022/09/27 09:46:04;;;;;;;;;;;11.20;99.90;;;;;;5075944;28;20399;-80
2022/09/27 09:48:38;;;;;;;;;;;11.20;99.90;;;;;;5076221;28;20272;-78
2022/09/27 09:51:06;;;;;;;;;;;11.30;99.90;;;;;;5089112;28;19929;-82
2022/09/27 09:53:32;;;;;;;;;;;11.20;99.90;;;;;;5073203;28;19920;-81
2022/09/27 09:56:01;;;;;;;;;;;11.30;99.90;;;;;;5055870;28;19920;-80
2022/09/27 09:58:29;;;;;;;;;;;11.30;99.90;;;;;;5072928;28;19921;-83
2022/09/27 10:00:59;;;;;;;;;;;11.40;99.90;;;;;;5055710;28;19928;-81
2022/09/27 10:03:25;;;;;;;;;;;11.50;99.90;;;;;;5058191;28;19920;-81
2022/09/27 10:05:50;;;;;;;;;;;11.40;99.90;;;;;;5080459;28;19926;-81
2022/09/27 10:08:20;;;;;;;;;;;11.40;99.90;;;;;;5059071;28;19920;-81
2022/09/27 10:10:46;;;;;;;;;;;11.40;99.90;;;;;;5106164;28;19928;-84
2022/09/27 10:13:17;;;;;;;;;;;11.40;99.90;;;;;;5088738;28;19920;-83
2022/09/27 10:15:44;;;;;;;;;;;11.60;99.90;;;;;;5086012;28;19920;-82
2022/09/27 10:18:14;;;;;;;;;;;11.50;99.90;;;;;;5092141;28;20831;-82
2022/09/27 10:20:55;;;;;;;;;;;11.50;99.90;;;;;;5075714;28;19920;-81
2022/09/27 10:23:23;;;;;;;;;;;11.50;99.90;;;;;;5074187;28;20007;-77
2022/09/27 10:25:52;;;;;;;;;;;11.30;99.90;;;;;;5092499;28;19972;-79
2022/09/27 10:28:33;;;;;;;;;;;11.20;99.90;;;;;;5075499;28;19920;-77
2022/09/27 10:31:00;;;;;;;;;;;11.00;99.90;;;;;;5091489;28;19924;-78
2022/09/27 10:33:26;;;;;;;;;;;11.00;99.90;;;;;;5091476;28;19920;-78
2022/09/27 10:35:52;;;;;;;;;;;10.90;99.90;;;;;;5074628;28;19928;-82
2022/09/27 10:38:19;;;;;;;;;;;10.90;99.90;;;;;;5090696;28;19920;-79
2022/09/27 10:40:44;;;;;;;;;;;10.90;99.90;;;;;;5115366;28;19927;-78
2022/09/27 10:43:29;;;;;;;;;;;10.80;99.90;;;;;;5073929;28;19921;-80
2022/09/27 10:46:15;;;;;;;;;;;10.80;99.90;;;;;;5091267;28;19942;-80
2022/09/27 10:48:41;;;;;;;;;;;10.80;99.90;;;;;;5091271;28;19932;-79
2022/09/27 10:51:20;;;;;;;;;;;10.80;99.90;;;;;;5084812;28;19942;-79
2022/09/27 10:53:46;;;;;;;;;;;10.90;99.90;;;;;;5068941;28;20314;-78
2022/09/27 10:56:20;;;;;;;;;;;10.90;99.90;;;;;;5106814;28;19920;-78
2022/09/27 10:58:46;;;;;;;;;;;11.00;99.90;;;;;;5075607;28;19920;-78
2022/09/27 11:01:11;;;;;;;;;;;11.10;99.90;;;;;;5075146;28;19920;-77
2022/09/27 11:03:48;;;;;;;;;;;11.20;99.90;;;;;;5075508;28;19941;-77
2022/09/27 11:06:39;;;;;;;;;;;11.30;99.90;;;;;;5071140;28;19949;-78
2022/09/27 11:09:33;;;;;;;;;;;11.50;99.90;;;;;;5071876;28;20243;-79
2022/09/27 11:12:09;;;;;;;;;;;11.60;99.90;;;;;;5088746;28;19946;-78
2022/09/27 11:14:34;;;;;;;;;;;11.70;99.90;;;;;;5091577;28;19920;-77
2022/09/27 11:17:03;;;;;;;;;;;11.80;99.90;;;;;;5074942;28;19920;-79
2022/09/27 11:19:28;;;;;;;;;;;11.80;99.90;;;;;;5074521;28;19974;-77
2022/09/27 11:21:58;;;;;;;;;;;11.90;99.90;;;;;;5108538;28;19971;-79
2022/09/27 11:24:34;;;;;;;;;;;11.80;99.90;;;;;;5085509;28;19925;-79
2022/09/27 11:27:04;;;;;;;;;;;11.80;99.90;;;;;;5071391;28;19974;-79
2022/09/27 11:29:49;;;;;;;;;;;11.80;99.90;;;;;;5088955;28;19924;-77
2022/09/27 11:32:26;;;;;;;;;;;11.80;99.90;;;;;;5108230;28;20269;-78
2022/09/27 11:35:11;;;;;;;;;;;11.90;99.90;;;;;;5092643;28;19920;-78
2022/09/27 11:37:39;;;;;;;;;;;12.20;99.90;;;;;;5078990;28;20023;-77
2022/09/27 11:40:20;;;;;;;;;;;12.10;99.90;;;;;;5095260;28;20011;-78
2022/09/27 11:42:49;;;;;;;;;;;11.90;99.90;;;;;;5089185;28;19974;-78
2022/09/27 11:45:18;;;;;;;;;;;11.80;99.90;;;;;;5086616;28;19920;-79
2022/09/27 11:47:46;;;;;;;;;;;11.80;99.90;;;;;;5095529;28;20397;-85
2022/09/27 11:50:12;;;;;;;;;;;11.90;99.90;;;;;;5086485;28;19924;-79
2022/09/27 11:52:44;;;;;;;;;;;11.90;99.90;;;;;;5073506;28;19975;-78
2022/09/27 11:55:15;;;;;;;;;;;11.90;99.90;;;;;;5080517;28;20316;-79
2022/09/27 11:57:42;;;;;;;;;;;12.00;99.90;;;;;;5074913;28;20285;-79
2022/09/27 12:00:09;;;;;;;;;;;12.00;99.90;;;;;;5074151;28;19928;-78
2022/09/27 12:02:53;;;;;;;;;;;11.80;99.90;;;;;;5073105;28;19924;-79
2022/09/27 12:05:22;;;;;;;;;;;11.50;99.90;;;;;;5056008;28;19924;-80
2022/09/27 12:07:47;;;;;;;;;;;11.40;99.90;;;;;;5055555;28;19934;-79
2022/09/27 12:10:15;;;;;;;;;;;11.20;99.90;;;;;;5070728;28;19932;-80
2022/09/27 12:12:44;;;;;;;;;;;11.20;99.90;;;;;;5063905;28;19930;-80
2022/09/27 12:15:18;;;;;;;;;;;11.10;99.90;;;;;;5069229;28;19924;-81
2022/09/27 12:17:47;;;;;;;;;;;11.20;99.90;;;;;;5075860;28;19920;-80
2022/09/27 12:20:17;;;;;;;;;;;11.30;99.90;;;;;;5073326;28;19977;-79
2022/09/27 12:23:01;;;;;;;;;;;11.70;99.90;;;;;;5100284;28;20420;-83
2022/09/27 12:25:33;;;;;;;;;;;12.10;99.90;;;;;;5054861;28;20342;-81
2022/09/27 12:28:01;;;;;;;;;;;12.50;99.90;;;;;;5055133;28;19924;-79
2022/09/27 12:30:28;;;;;;;;;;;12.80;99.90;;;;;;5071865;28;19928;-82
2022/09/27 12:32:59;;;;;;;;;;;13.20;99.90;;;;;;5086450;28;19971;-81
2022/09/27 12:35:31;;;;;;;;;;;13.30;99.90;;;;;;5075057;28;19984;-80
2022/09/27 12:37:59;;;;;;;;;;;13.30;99.90;;;;;;5091470;28;19930;-81
2022/09/27 12:40:28;;;;;;;;;;;13.70;99.90;;;;;;5059362;28;19970;-80
2022/09/27 12:43:04;;;;;;;;;;;14.00;99.90;;;;;;5074420;28;19935;-81
2022/09/27 12:45:30;;;;;;;;;;;13.90;99.90;;;;;;5091240;28;19920;-80
2022/09/27 12:47:55;;;;;;;;;;;13.30;99.90;;;;;;5082426;28;19985;-81
2022/09/27 12:50:24;;;;;;;;;;;12.70;99.90;;;;;;5080983;28;20254;-81
2022/09/27 12:52:58;;;;;;;;;;;12.60;99.90;;;;;;5083806;28;19924;-82
2022/09/27 12:55:47;;;;;;;;;;;12.60;99.90;;;;;;5074450;28;19970;-80
2022/09/27 12:58:12;;;;;;;;;;;12.50;99.90;;;;;;5060162;28;19924;-80
2022/09/27 13:00:46;;;;;;;;;;;12.80;99.90;;;;;;5091144;28;20018;-79
2022/09/27 13:03:26;;;;;;;;;;;12.70;99.90;;;;;;5090693;28;19924;-80
2022/09/27 13:05:55;;;;;;;;;;;12.40;99.90;;;;;;5090890;28;20031;-80
2022/09/27 13:08:36;;;;;;;;;;;12.20;99.90;;;;;;5062641;28;19924;-78
2022/09/27 13:11:22;;;;;;;;;;;11.90;99.90;;;;;;5076324;28;20022;-81
2022/09/27 13:13:48;;;;;;;;;;;11.70;99.90;;;;;;5064684;28;20010;-80
2022/09/27 13:16:13;;;;;;;;;;;11.50;99.90;;;;;;5083844;28;20015;-80
2022/09/27 13:18:54;;;;;;;;;;;11.30;99.90;;;;;;5120751;27;20003;-81
2022/09/27 13:21:39;;;;;;;;;;;11.20;99.90;;;;;;5062476;28;19924;-81
2022/09/27 13:24:24;;;;;;;;;;;11.10;99.90;;;;;;5086830;28;19924;-79
2022/09/27 13:26:50;;;;;;;;;;;11.20;99.90;;;;;;5073208;28;19924;-78
2022/09/27 13:29:21;;;;;;;;;;;11.30;99.90;;;;;;5073820;28;20319;-78
2022/09/27 13:31:53;;;;;;;;;;;11.30;99.90;;;;;;5088832;28;19971;-81
2022/09/27 13:34:45;;;;;;;;;;;11.30;99.90;;;;;;5055756;28;19920;-81
2022/09/27 13:37:30;;;;;;;;;;;11.30;99.90;;;;;;5100499;28;20708;-82
2022/09/27 13:40:11;;;;;;;;;;;11.40;99.90;;;;;;5089335;28;19931;-81
2022/09/27 13:42:39;;;;;;;;;;;11.40;99.90;;;;;;5078081;28;20026;-80
2022/09/27 13:45:14;;;;;;;;;;;11.50;99.90;;;;;;5090476;28;20392;-81
2022/09/27 13:47:43;;;;;;;;;;;11.40;99.90;;;;;;5089522;28;19920;-80
2022/09/27 13:50:15;;;;;;;;;;;11.30;99.90;;;;;;5089711;28;19920;-81
2022/09/27 13:52:43;;;;;;;;;;;11.30;99.90;;;;;;5090418;28;19924;-81
2022/09/27 13:55:32;;;;;;;;;;;11.30;99.90;;;;;;5088762;28;19936;-80
2022/09/27 13:58:04;;;;;;;;;;;11.30;99.90;;;;;;5076055;28;19939;-81
2022/09/27 14:00:33;;;;;;;;;;;11.30;99.90;;;;;;5088397;28;20036;-81
2022/09/27 14:03:01;;;;;;;;;;;11.40;99.90;;;;;;5089345;28;19931;-82
2022/09/27 14:05:31;;;;;;;;;;;11.40;99.90;;;;;;5089710;28;20277;-81
2022/09/27 14:07:58;;;;;;;;;;;11.50;99.90;;;;;;5073258;28;20007;-81
2022/09/27 14:10:26;;;;;;;;;;;11.60;99.90;;;;;;5082625;28;19920;-81
2022/09/27 14:12:52;;;;;;;;;;;11.70;99.90;;;;;;5090653;28;19982;-82
2022/09/27 14:15:27;;;;;;;;;;;11.80;99.90;;;;;;5089758;28;19928;-82
2022/09/27 14:17:54;;;;;;;;;;;11.90;99.90;;;;;;5071915;28;20308;-81
2022/09/27 14:20:41;;;;;;;;;;;12.00;99.90;;;;;;5065501;28;19925;-82
2022/09/27 14:23:12;;;;;;;;;;;11.90;99.90;;;;;;5080604;28;19927;-81
2022/09/27 14:25:43;;;;;;;;;;;12.00;99.90;;;;;;5074627;28;20438;-82
2022/09/27 14:28:19;;;;;;;;;;;12.00;99.90;;;;;;5069718;28;19924;-81
2022/09/27 14:30:45;;;;;;;;;;;12.00;99.90;;;;;;5088910;28;19947;-81
2022/09/27 14:33:26;;;;;;;;;;;12.00;99.90;;;;;;5118363;27;19920;-81
2022/09/27 14:38:37;;;;;;;;;;;12.10;99.90;;;;;;5084552;28;20143;-81
2022/09/27 14:41:06;;;;;;;;;;;12.30;99.90;;;;;;5069727;28;19964;-81